createdAt,value
2017-05-04T00:00:06.615Z,13.32
2017-05-04T00:00:47.146Z,13.39
2017-05-04T00:01:27.655Z,13.3
2017-05-04T00:02:08.213Z,13.36
2017-05-04T00:02:48.708Z,13.28
2017-05-04T00:03:29.216Z,13.33
2017-05-04T00:04:09.723Z,13.3
2017-05-04T00:04:50.241Z,13.22
2017-05-04T00:05:30.757Z,13.26
2017-05-04T00:06:11.267Z,13.12
2017-05-04T00:06:51.802Z,13.23
2017-05-04T00:07:32.321Z,13.33
2017-05-04T00:08:12.830Z,13.26
2017-05-04T00:08:53.335Z,13.25
2017-05-04T00:09:33.848Z,13.29
2017-05-04T00:10:14.356Z,13.39
2017-05-04T00:10:54.894Z,13.28
2017-05-04T00:11:35.407Z,13.23
2017-05-04T00:12:15.918Z,13.23
2017-05-04T00:12:56.439Z,13.22
2017-05-04T00:13:36.962Z,13.23
2017-05-04T00:14:17.477Z,13.12
2017-05-04T00:14:57.989Z,13.22
2017-05-04T00:15:38.513Z,13.2
2017-05-04T00:16:19.030Z,13.2
2017-05-04T00:16:59.552Z,13.08
2017-05-04T00:17:40.063Z,13.12
2017-05-04T00:18:20.566Z,13.12
2017-05-04T00:19:01.078Z,13.2
2017-05-04T00:19:41.595Z,13.14
2017-05-04T00:20:22.113Z,13.11
2017-05-04T00:21:02.622Z,13.26
2017-05-04T00:21:43.141Z,13.28
2017-05-04T00:22:23.669Z,13.12
2017-05-04T00:23:04.169Z,13.38
2017-05-04T00:23:44.698Z,13.29
2017-05-04T00:24:25.203Z,13.36
2017-05-04T00:25:05.720Z,13.32
2017-05-04T00:25:46.228Z,13.39
2017-05-04T00:26:26.745Z,13.44
2017-05-04T00:27:07.270Z,13.36
2017-05-04T00:27:47.789Z,13.3
2017-05-04T00:28:28.290Z,13.41
2017-05-04T00:29:08.805Z,13.39
2017-05-04T00:29:49.280Z,13.42
2017-05-04T00:30:29.784Z,13.46
2017-05-04T00:31:10.291Z,13.46
2017-05-04T00:31:50.798Z,13.54
2017-05-04T00:32:31.324Z,13.62
2017-05-04T00:33:11.854Z,13.45
2017-05-04T00:33:52.396Z,13.52
2017-05-04T00:34:32.869Z,13.46
2017-05-04T00:35:13.363Z,13.44
2017-05-04T00:35:53.873Z,13.49
2017-05-04T00:36:34.367Z,13.59
2017-05-04T00:37:14.842Z,13.57
2017-05-04T00:37:55.343Z,13.54
2017-05-04T00:38:35.863Z,13.52
2017-05-04T00:39:16.317Z,13.6
2017-05-04T00:39:56.852Z,13.52
2017-05-04T00:40:37.308Z,13.55
2017-05-04T00:41:17.808Z,13.6
2017-05-04T00:41:58.306Z,13.55
2017-05-04T00:42:38.782Z,13.54
2017-05-04T00:43:19.310Z,13.54
2017-05-04T00:43:59.824Z,13.59
2017-05-04T00:44:40.292Z,13.52
2017-05-04T00:45:20.803Z,13.6
2017-05-04T00:46:01.310Z,13.54
2017-05-04T00:46:41.778Z,13.36
2017-05-04T00:47:22.313Z,13.38
2017-05-04T00:48:02.818Z,13.42
2017-05-04T00:48:43.317Z,13.41
2017-05-04T00:49:23.827Z,13.57
2017-05-04T00:50:04.315Z,13.57
2017-05-04T00:50:44.837Z,13.6
2017-05-04T00:51:25.313Z,13.59
2017-05-04T00:52:05.794Z,13.54
2017-05-04T00:52:46.299Z,13.41
2017-05-04T00:53:26.818Z,13.3
2017-05-04T00:54:07.306Z,13.33
2017-05-04T00:54:47.869Z,13.26
2017-05-04T00:55:28.344Z,13.32
2017-05-04T00:56:08.820Z,13.14
2017-05-04T00:56:49.264Z,13.28
2017-05-04T00:57:29.759Z,13.36
2017-05-04T00:58:10.253Z,13.41
2017-05-04T00:58:50.758Z,13.17
2017-05-04T00:59:31.260Z,13.26
2017-05-04T01:00:11.754Z,13.41
2017-05-04T01:00:52.230Z,13.48
2017-05-04T01:01:32.743Z,13.52
2017-05-04T01:02:13.229Z,13.55
2017-05-04T01:02:53.714Z,13.55
2017-05-04T01:03:34.207Z,13.51
2017-05-04T01:04:14.721Z,13.49
2017-05-04T01:04:55.236Z,13.55
2017-05-04T01:05:35.730Z,13.54
2017-05-04T01:06:16.213Z,13.59
2017-05-04T01:06:56.684Z,13.59
2017-05-04T01:07:37.218Z,13.55
2017-05-04T01:08:17.723Z,13.46
2017-05-04T01:08:58.205Z,13.57
2017-05-04T01:09:38.676Z,13.41
2017-05-04T01:10:19.195Z,13.45
2017-05-04T01:10:59.650Z,13.48
2017-05-04T01:11:40.159Z,13.46
2017-05-04T01:12:20.659Z,13.49
2017-05-04T01:13:01.140Z,13.45
2017-05-04T01:13:41.639Z,13.49
2017-05-04T01:14:22.151Z,13.55
2017-05-04T01:15:02.677Z,13.45
2017-05-04T01:15:43.174Z,13.39
2017-05-04T01:16:23.674Z,13.46
2017-05-04T01:17:04.188Z,13.46
2017-05-04T01:17:44.654Z,13.52
2017-05-04T01:18:25.140Z,13.49
2017-05-04T01:19:05.609Z,13.59
2017-05-04T01:19:46.115Z,13.44
2017-05-04T01:20:26.605Z,13.46
2017-05-04T01:21:07.122Z,13.39
2017-05-04T01:21:47.636Z,13.42
2017-05-04T01:22:28.152Z,13.59
2017-05-04T01:23:08.663Z,13.59
2017-05-04T01:23:49.182Z,13.41
2017-05-04T01:24:29.676Z,13.44
2017-05-04T01:25:10.189Z,13.19
2017-05-04T01:25:50.699Z,13.19
2017-05-04T01:26:31.218Z,13.2
2017-05-04T01:27:11.731Z,13.23
2017-05-04T01:27:52.250Z,13.39
2017-05-04T01:28:32.754Z,13.38
2017-05-04T01:29:13.281Z,13.39
2017-05-04T01:29:53.793Z,13.46
2017-05-04T01:30:34.304Z,13.38
2017-05-04T01:31:14.796Z,13.38
2017-05-04T01:31:55.315Z,13.33
2017-05-04T01:32:35.812Z,13.38
2017-05-04T01:33:16.303Z,13.45
2017-05-04T01:33:56.863Z,13.32
2017-05-04T01:34:37.336Z,13.2
2017-05-04T01:35:17.818Z,13.22
2017-05-04T01:35:58.319Z,13
2017-05-04T01:36:38.801Z,13.14
2017-05-04T01:37:19.274Z,13.11
2017-05-04T01:37:59.789Z,13.14
2017-05-04T01:38:40.294Z,13.14
2017-05-04T01:39:20.806Z,13.26
2017-05-04T01:40:01.321Z,13.39
2017-05-04T01:40:41.825Z,13.28
2017-05-04T01:41:22.339Z,13.33
2017-05-04T01:42:02.873Z,13.28
2017-05-04T01:42:43.388Z,13.19
2017-05-04T01:43:23.895Z,13.17
2017-05-04T01:44:04.411Z,13.05
2017-05-04T01:44:44.913Z,13.15
2017-05-04T01:45:25.430Z,13.15
2017-05-04T01:46:05.938Z,13.1
2017-05-04T01:46:46.455Z,13.12
2017-05-04T01:47:26.950Z,13.07
2017-05-04T01:48:07.482Z,13.14
2017-05-04T01:48:47.981Z,13.11
2017-05-04T01:49:28.511Z,13.01
2017-05-04T01:50:09.072Z,13.01
2017-05-04T01:50:49.562Z,12.83
2017-05-04T01:51:30.106Z,12.93
2017-05-04T01:52:10.618Z,13
2017-05-04T01:52:51.142Z,13.07
2017-05-04T01:53:31.650Z,13.17
2017-05-04T01:54:12.158Z,12.97
2017-05-04T01:54:52.684Z,12.71
2017-05-04T01:55:33.196Z,12.67
2017-05-04T01:56:13.701Z,12.7
2017-05-04T01:56:54.236Z,12.65
2017-05-04T01:57:34.727Z,12.68
2017-05-04T01:58:15.253Z,12.72
2017-05-04T01:58:55.758Z,12.54
2017-05-04T01:59:36.257Z,12.5
2017-05-04T02:00:16.783Z,12.64
2017-05-04T02:00:57.304Z,12.56
2017-05-04T02:01:37.847Z,12.59
2017-05-04T02:02:18.331Z,12.64
2017-05-04T02:02:58.855Z,12.65
2017-05-04T02:03:39.372Z,12.67
2017-05-04T02:04:19.899Z,12.62
2017-05-04T02:05:00.420Z,12.67
2017-05-04T02:05:40.936Z,12.7
2017-05-04T02:06:21.474Z,12.71
2017-05-04T02:07:01.988Z,12.67
2017-05-04T02:07:42.453Z,12.67
2017-05-04T02:08:22.977Z,12.62
2017-05-04T02:09:03.461Z,12.54
2017-05-04T02:09:43.959Z,12.64
2017-05-04T02:10:24.470Z,12.68
2017-05-04T02:11:04.977Z,12.59
2017-05-04T02:11:45.497Z,12.59
2017-05-04T02:12:26.005Z,12.57
2017-05-04T02:13:06.510Z,12.67
2017-05-04T02:13:47.037Z,12.64
2017-05-04T02:14:27.554Z,12.62
2017-05-04T02:15:08.073Z,12.59
2017-05-04T02:15:48.581Z,12.6
2017-05-04T02:16:29.094Z,12.59
2017-05-04T02:17:09.608Z,12.6
2017-05-04T02:17:50.111Z,12.42
2017-05-04T02:18:30.569Z,12.24
2017-05-04T02:19:11.094Z,12.29
2017-05-04T02:19:51.588Z,12.27
2017-05-04T02:20:32.141Z,12.28
2017-05-04T02:21:12.603Z,12.27
2017-05-04T02:21:53.135Z,12.12
2017-05-04T02:22:33.637Z,12.24
2017-05-04T02:23:14.134Z,12.31
2017-05-04T02:23:54.637Z,12.37
2017-05-04T02:24:35.150Z,12.41
2017-05-04T02:25:15.617Z,12.6
2017-05-04T02:25:56.125Z,12.54
2017-05-04T02:26:36.584Z,12.57
2017-05-04T02:27:17.064Z,12.47
2017-05-04T02:27:57.557Z,12.53
2017-05-04T02:28:38.078Z,12.71
2017-05-04T02:29:18.534Z,12.56
2017-05-04T02:29:59.042Z,12.67
2017-05-04T02:30:39.511Z,12.68
2017-05-04T02:31:20.004Z,12.56
2017-05-04T02:32:00.481Z,12.64
2017-05-04T02:32:40.972Z,12.67
2017-05-04T02:33:21.453Z,12.62
2017-05-04T02:34:01.987Z,12.67
2017-05-04T02:34:42.439Z,12.65
2017-05-04T02:35:22.919Z,12.59
2017-05-04T02:36:03.423Z,12.72
2017-05-04T02:36:43.927Z,12.6
2017-05-04T02:37:24.450Z,12.65
2017-05-04T02:38:04.957Z,12.7
2017-05-04T02:38:45.494Z,12.71
2017-05-04T02:39:26.023Z,12.6
2017-05-04T02:40:06.525Z,12.67
2017-05-04T02:40:47.050Z,12.65
2017-05-04T02:41:27.512Z,12.54
2017-05-04T02:42:08.019Z,12.57
2017-05-04T02:42:48.512Z,12.54
2017-05-04T02:43:29.035Z,12.65
2017-05-04T02:44:09.551Z,12.65
2017-05-04T02:44:50.068Z,12.67
2017-05-04T02:45:30.579Z,12.64
2017-05-04T02:46:11.075Z,12.56
2017-05-04T02:46:51.582Z,12.59
2017-05-04T02:47:32.096Z,12.74
2017-05-04T02:48:12.618Z,12.62
2017-05-04T02:48:53.140Z,12.71
2017-05-04T02:49:33.722Z,12.65
2017-05-04T02:50:14.168Z,12.67
2017-05-04T02:50:54.698Z,12.68
2017-05-04T02:51:35.202Z,12.65
2017-05-04T02:52:15.708Z,12.5
2017-05-04T02:52:56.222Z,12.37
2017-05-04T02:53:36.728Z,12.49
2017-05-04T02:54:17.270Z,12.6
2017-05-04T02:54:57.800Z,12.56
2017-05-04T02:55:38.243Z,12.57
2017-05-04T02:56:18.724Z,12.56
2017-05-04T02:56:59.238Z,12.52
2017-05-04T02:57:39.750Z,12.56
2017-05-04T02:58:20.271Z,12.52
2017-05-04T02:59:00.767Z,12.57
2017-05-04T02:59:41.277Z,12.59
2017-05-04T03:00:21.812Z,12.5
2017-05-04T03:01:02.332Z,12.32
2017-05-04T03:01:42.871Z,12.28
2017-05-04T03:02:23.347Z,12.2
2017-05-04T03:03:03.855Z,12.21
2017-05-04T03:03:44.367Z,12.24
2017-05-04T03:04:24.881Z,12.2
2017-05-04T03:05:05.431Z,12.29
2017-05-04T03:05:45.903Z,12.31
2017-05-04T03:06:26.377Z,12.19
2017-05-04T03:07:06.906Z,12.23
2017-05-04T03:07:47.420Z,12.17
2017-05-04T03:08:27.908Z,12.23
2017-05-04T03:09:08.422Z,12.38
2017-05-04T03:09:48.928Z,12.38
2017-05-04T03:10:29.442Z,12.28
2017-05-04T03:11:09.954Z,12.27
2017-05-04T03:11:50.457Z,12.28
2017-05-04T03:12:30.958Z,12.24
2017-05-04T03:13:11.456Z,12.21
2017-05-04T03:13:51.970Z,12.14
2017-05-04T03:14:32.450Z,12.17
2017-05-04T03:15:12.953Z,12.14
2017-05-04T03:15:53.407Z,12.17
2017-05-04T03:16:33.895Z,12.12
2017-05-04T03:17:14.390Z,11.9
2017-05-04T03:17:54.876Z,11.95
2017-05-04T03:18:35.404Z,11.98
2017-05-04T03:19:15.923Z,11.95
2017-05-04T03:19:56.435Z,11.96
2017-05-04T03:20:36.930Z,12.02
2017-05-04T03:21:17.430Z,12.1
2017-05-04T03:21:57.940Z,12.07
2017-05-04T03:22:38.460Z,11.99
2017-05-04T03:23:18.991Z,11.96
2017-05-04T03:23:59.494Z,11.96
2017-05-04T03:24:40.011Z,12.01
2017-05-04T03:25:20.556Z,12.07
2017-05-04T03:26:01.020Z,12.07
2017-05-04T03:26:41.561Z,12.02
2017-05-04T03:27:22.050Z,12.04
2017-05-04T03:28:02.569Z,12.01
2017-05-04T03:28:43.087Z,12.05
2017-05-04T03:29:23.600Z,12.14
2017-05-04T03:30:04.120Z,11.99
2017-05-04T03:30:44.642Z,11.86
2017-05-04T03:31:25.171Z,11.73
2017-05-04T03:32:05.706Z,11.72
2017-05-04T03:32:46.230Z,11.75
2017-05-04T03:33:26.723Z,11.86
2017-05-04T03:34:07.261Z,11.98
2017-05-04T03:34:47.706Z,11.94
2017-05-04T03:35:28.193Z,12.05
2017-05-04T03:36:08.723Z,12.07
2017-05-04T03:36:49.196Z,12.05
2017-05-04T03:37:29.668Z,12.09
2017-05-04T03:38:10.159Z,12.07
2017-05-04T03:38:50.648Z,12.16
2017-05-04T03:39:31.165Z,12.07
2017-05-04T03:40:11.727Z,12.01
2017-05-04T03:40:52.192Z,12.04
2017-05-04T03:41:32.674Z,11.99
2017-05-04T03:42:13.191Z,11.96
2017-05-04T03:42:53.679Z,11.99
2017-05-04T03:43:34.153Z,12.14
2017-05-04T03:44:14.715Z,12.13
2017-05-04T03:44:55.194Z,12.12
2017-05-04T03:45:35.681Z,12.28
2017-05-04T03:46:16.185Z,12.16
2017-05-04T03:46:56.662Z,12.1
2017-05-04T03:47:37.146Z,12.14
2017-05-04T03:48:17.628Z,12.27
2017-05-04T03:48:58.151Z,12.16
2017-05-04T03:49:38.684Z,12.19
2017-05-04T03:50:19.170Z,12.24
2017-05-04T03:50:59.608Z,12.28
2017-05-04T03:51:40.155Z,12.32
2017-05-04T03:52:20.666Z,12.29
2017-05-04T03:53:01.149Z,12.19
2017-05-04T03:53:41.624Z,12.14
2017-05-04T03:54:22.145Z,12.21
2017-05-04T03:55:02.676Z,12.28
2017-05-04T03:55:43.176Z,12.28
2017-05-04T03:56:23.639Z,12.23
2017-05-04T03:57:04.150Z,12.28
2017-05-04T03:57:44.613Z,12.28
2017-05-04T03:58:25.135Z,12.24
2017-05-04T03:59:05.579Z,12.34
2017-05-04T03:59:46.065Z,12.2
2017-05-04T04:00:26.665Z,12.28
2017-05-04T04:01:07.119Z,12.28
2017-05-04T04:01:47.595Z,12.31
2017-05-04T04:02:28.097Z,12.31
2017-05-04T04:03:08.592Z,12.42
2017-05-04T04:03:49.148Z,12.28
2017-05-04T04:04:29.651Z,12.14
2017-05-04T04:05:10.119Z,12.14
2017-05-04T04:05:50.605Z,12.05
2017-05-04T04:06:31.121Z,12.1
2017-05-04T04:07:11.646Z,12.05
2017-05-04T04:07:52.139Z,12.04
2017-05-04T04:08:32.618Z,12.12
2017-05-04T04:09:13.117Z,12.2
2017-05-04T04:09:53.603Z,12.2
2017-05-04T04:10:34.145Z,12.29
2017-05-04T04:11:14.637Z,12.41
2017-05-04T04:11:55.095Z,12.39
2017-05-04T04:12:35.597Z,12.42
2017-05-04T04:13:16.077Z,12.5
2017-05-04T04:13:56.540Z,12.47
2017-05-04T04:14:37.081Z,12.42
2017-05-04T04:15:17.557Z,12.34
2017-05-04T04:15:58.035Z,12.42
2017-05-04T04:16:38.518Z,12.45
2017-05-04T04:17:19.001Z,12.46
2017-05-04T04:17:59.502Z,12.42
2017-05-04T04:18:40.012Z,12.35
2017-05-04T04:19:20.460Z,12.41
2017-05-04T04:20:00.952Z,12.42
2017-05-04T04:20:41.471Z,12.52
2017-05-04T04:21:21.995Z,12.37
2017-05-04T04:22:02.452Z,12.09
2017-05-04T04:22:42.967Z,12.28
2017-05-04T04:23:23.456Z,12.24
2017-05-04T04:24:03.942Z,12.28
2017-05-04T04:24:44.444Z,12.24
2017-05-04T04:25:24.903Z,12.24
2017-05-04T04:26:05.421Z,12.34
2017-05-04T04:26:45.884Z,12.37
2017-05-04T04:27:26.400Z,12.27
2017-05-04T04:28:06.882Z,12.39
2017-05-04T04:28:47.368Z,12.47
2017-05-04T04:29:27.851Z,12.39
2017-05-04T04:30:08.308Z,12.47
2017-05-04T04:30:48.844Z,12.53
2017-05-04T04:31:29.354Z,12.53
2017-05-04T04:32:09.821Z,12.47
2017-05-04T04:32:50.315Z,12.34
2017-05-04T04:33:30.810Z,12.29
2017-05-04T04:34:11.288Z,12.35
2017-05-04T04:34:51.824Z,12.42
2017-05-04T04:35:32.276Z,12.49
2017-05-04T04:36:12.786Z,12.5
2017-05-04T04:36:53.261Z,12.5
2017-05-04T04:37:33.775Z,12.5
2017-05-04T04:38:14.243Z,12.59
2017-05-04T04:38:54.760Z,12.6
2017-05-04T04:39:35.218Z,12.5
2017-05-04T04:40:15.692Z,12.54
2017-05-04T04:40:56.167Z,12.49
2017-05-04T04:41:36.662Z,12.39
2017-05-04T04:42:17.200Z,12.49
2017-05-04T04:42:57.657Z,12.38
2017-05-04T04:43:38.166Z,12.41
2017-05-04T04:44:18.647Z,12.59
2017-05-04T04:44:59.138Z,12.59
2017-05-04T04:45:39.655Z,12.64
2017-05-04T04:46:20.082Z,12.65
2017-05-04T04:47:00.577Z,12.67
2017-05-04T04:47:41.066Z,12.65
2017-05-04T04:48:21.573Z,12.71
2017-05-04T04:49:02.053Z,12.71
2017-05-04T04:49:42.567Z,12.86
2017-05-04T04:50:23.097Z,12.77
2017-05-04T04:51:03.568Z,12.96
2017-05-04T04:51:44.036Z,12.87
2017-05-04T04:52:24.506Z,12.95
2017-05-04T04:53:05.022Z,12.82
2017-05-04T04:53:45.489Z,12.86
2017-05-04T04:54:26.008Z,12.86
2017-05-04T04:55:06.497Z,12.77
2017-05-04T04:55:46.999Z,12.93
2017-05-04T04:56:27.479Z,12.95
2017-05-04T04:57:07.972Z,13.05
2017-05-04T04:57:48.470Z,12.96
2017-05-04T04:58:28.938Z,13.04
2017-05-04T04:59:09.477Z,13.1
2017-05-04T04:59:49.943Z,13.12
2017-05-04T05:00:30.476Z,13.07
2017-05-04T05:01:10.962Z,13.08
2017-05-04T05:01:51.474Z,12.95
2017-05-04T05:02:31.979Z,13.01
2017-05-04T05:03:12.447Z,13
2017-05-04T05:03:52.912Z,13.07
2017-05-04T05:04:33.378Z,13.08
2017-05-04T05:05:13.846Z,13.1
2017-05-04T05:05:54.373Z,13.11
2017-05-04T05:06:34.896Z,13.03
2017-05-04T05:07:15.384Z,13.05
2017-05-04T05:07:55.872Z,13.11
2017-05-04T05:08:36.370Z,13.15
2017-05-04T05:09:16.853Z,13.29
2017-05-04T05:09:57.350Z,13.36
2017-05-04T05:10:37.834Z,13.29
2017-05-04T05:11:18.438Z,13.29
2017-05-04T05:11:58.916Z,13.42
2017-05-04T05:12:39.383Z,13.49
2017-05-04T05:13:19.871Z,13.49
2017-05-04T05:14:00.540Z,13.33
2017-05-04T05:14:41.022Z,13.39
2017-05-04T05:15:21.502Z,13.38
2017-05-04T05:16:02.054Z,13.46
2017-05-04T05:16:42.481Z,13.57
2017-05-04T05:17:22.985Z,13.55
2017-05-04T05:18:03.774Z,13.6
2017-05-04T05:18:44.279Z,13.54
2017-05-04T05:19:24.783Z,13.55
2017-05-04T05:20:05.354Z,13.57
2017-05-04T05:20:45.812Z,13.55
2017-05-04T05:21:26.294Z,13.62
2017-05-04T05:22:06.786Z,13.6
2017-05-04T05:22:47.274Z,13.62
2017-05-04T05:23:27.766Z,13.64
2017-05-04T05:24:08.243Z,13.57
2017-05-04T05:24:48.817Z,13.59
2017-05-04T05:25:29.216Z,13.6
2017-05-04T05:26:09.699Z,13.54
2017-05-04T05:26:50.320Z,13.49
2017-05-04T05:27:30.687Z,13.55
2017-05-04T05:28:11.263Z,13.54
2017-05-04T05:28:51.652Z,13.55
2017-05-04T05:29:32.166Z,13.48
2017-05-04T05:30:12.668Z,13.44
2017-05-04T05:30:53.166Z,13.41
2017-05-04T05:31:33.630Z,13.59
2017-05-04T05:32:14.147Z,13.55
2017-05-04T05:32:55.417Z,13.51
2017-05-04T05:33:35.871Z,13.63
2017-05-04T05:34:16.319Z,13.64
2017-05-04T05:34:56.809Z,13.57
2017-05-04T05:35:37.339Z,13.63
2017-05-04T05:36:17.818Z,13.77
2017-05-04T05:36:58.319Z,13.84
2017-05-04T05:37:38.832Z,13.89
2017-05-04T05:38:19.291Z,13.91
2017-05-04T05:38:59.833Z,13.95
2017-05-04T05:39:40.275Z,13.75
2017-05-04T05:40:20.786Z,13.82
2017-05-04T05:41:01.851Z,13.46
2017-05-04T05:41:42.291Z,13.66
2017-05-04T05:42:22.775Z,13.88
2017-05-04T05:43:03.318Z,13.96
2017-05-04T05:43:43.847Z,14.14
2017-05-04T05:44:24.405Z,14.15
2017-05-04T05:45:04.888Z,14.09
2017-05-04T05:45:45.336Z,14.06
2017-05-04T05:46:25.903Z,14.07
2017-05-04T05:47:07.154Z,14.07
2017-05-04T05:47:47.802Z,14.1
2017-05-04T05:48:28.228Z,14
2017-05-04T05:50:26.591Z,14.21
2017-05-04T05:51:07.055Z,14.25
2017-05-04T05:51:47.596Z,14.36
2017-05-04T05:52:28.084Z,14.25
2017-05-04T05:53:08.613Z,14.25
2017-05-04T05:53:49.140Z,14.32
2017-05-04T05:54:29.643Z,14.25
2017-05-04T05:55:10.225Z,14.33
2017-05-04T05:55:50.740Z,14.33
2017-05-04T05:56:31.239Z,14.29
2017-05-04T05:57:11.767Z,14.21
2017-05-04T05:57:52.317Z,14.18
2017-05-04T05:58:32.770Z,14.27
2017-05-04T05:59:13.279Z,14.32
2017-05-04T05:59:53.753Z,14.33
2017-05-04T06:00:34.259Z,14.32
2017-05-04T06:01:14.744Z,14.2
2017-05-04T06:01:55.612Z,14.18
2017-05-04T06:02:36.151Z,13.85
2017-05-04T06:03:16.602Z,13.88
2017-05-04T06:03:57.112Z,13.99
2017-05-04T06:04:37.597Z,13.57
2017-05-04T06:05:18.136Z,13.45
2017-05-04T06:05:58.835Z,13.39
2017-05-04T06:06:39.180Z,13.44
2017-05-04T06:07:20.139Z,13.51
2017-05-04T06:08:00.678Z,13.6
2017-05-04T06:08:41.456Z,13.64
2017-05-04T06:09:22.016Z,13.82
2017-05-04T06:10:02.859Z,13.79
2017-05-04T06:10:43.273Z,13.69
2017-05-04T06:11:23.797Z,13.77
2017-05-04T06:12:04.716Z,13.57
2017-05-04T06:12:45.295Z,13.67
2017-05-04T06:13:25.787Z,13.69
2017-05-04T06:14:06.286Z,13.79
2017-05-04T06:14:48.149Z,13.92
2017-05-04T06:15:28.334Z,13.91
2017-05-04T06:16:08.814Z,14.07
2017-05-04T06:16:49.279Z,14.1
2017-05-04T06:17:29.826Z,14.22
2017-05-04T06:18:10.535Z,14.17
2017-05-04T06:18:51.024Z,14.18
2017-05-04T06:19:31.520Z,14.27
2017-05-04T06:20:12.026Z,14.28
2017-05-04T06:20:52.543Z,14.28
2017-05-04T06:21:33.056Z,14.17
2017-05-04T06:22:13.579Z,14.17
2017-05-04T06:22:54.084Z,14.18
2017-05-04T06:23:34.612Z,13.88
2017-05-04T06:24:15.163Z,13.92
2017-05-04T06:24:55.636Z,13.97
2017-05-04T06:25:36.159Z,13.97
2017-05-04T06:26:16.679Z,14.18
2017-05-04T06:26:57.203Z,14.25
2017-05-04T06:27:37.724Z,14.17
2017-05-04T06:28:18.231Z,14.29
2017-05-04T06:28:58.742Z,14.07
2017-05-04T06:29:39.283Z,14.18
2017-05-04T06:30:19.808Z,14.35
2017-05-04T06:31:00.320Z,14.14
2017-05-04T06:31:40.860Z,14.2
2017-05-04T06:32:21.437Z,14.21
2017-05-04T06:33:01.966Z,14.06
2017-05-04T06:33:42.512Z,14.29
2017-05-04T06:34:23.030Z,14.4
2017-05-04T06:35:03.548Z,14.33
2017-05-04T06:35:44.069Z,14.17
2017-05-04T06:36:24.598Z,14.14
2017-05-04T06:37:05.132Z,14.17
2017-05-04T06:37:45.645Z,14.24
2017-05-04T06:38:26.166Z,14.35
2017-05-04T06:39:06.679Z,14.5
2017-05-04T06:39:47.195Z,14.42
2017-05-04T06:40:27.751Z,14.5
2017-05-04T06:41:08.328Z,14.47
2017-05-04T06:41:49.067Z,14.5
2017-05-04T06:42:29.580Z,14.47
2017-05-04T06:43:10.256Z,14.62
2017-05-04T06:43:50.746Z,14.62
2017-05-04T06:44:31.169Z,14.58
2017-05-04T06:45:11.695Z,14.68
2017-05-04T06:45:52.155Z,14.73
2017-05-04T06:46:32.693Z,14.72
2017-05-04T06:47:13.172Z,14.88
2017-05-04T06:47:53.693Z,14.94
2017-05-04T06:48:34.184Z,14.88
2017-05-04T06:49:14.690Z,14.92
2017-05-04T06:49:55.179Z,14.86
2017-05-04T06:50:35.657Z,14.86
2017-05-04T06:51:16.195Z,14.88
2017-05-04T06:51:56.717Z,14.89
2017-05-04T06:52:37.234Z,15.01
2017-05-04T06:53:17.748Z,14.83
2017-05-04T06:53:58.277Z,14.81
2017-05-04T06:54:38.778Z,14.73
2017-05-04T06:55:19.302Z,14.77
2017-05-04T06:55:59.813Z,14.75
2017-05-04T06:56:40.342Z,14.84
2017-05-04T06:57:20.870Z,14.86
2017-05-04T06:58:01.383Z,14.91
2017-05-04T06:58:41.928Z,14.88
2017-05-04T06:59:22.459Z,14.88
2017-05-04T07:00:03.001Z,15.02
2017-05-04T07:00:43.516Z,15.02
2017-05-04T07:01:24.020Z,15.01
2017-05-04T07:02:04.531Z,14.98
2017-05-04T07:02:45.054Z,15.02
2017-05-04T07:03:25.585Z,15.03
2017-05-04T07:04:06.103Z,15.06
2017-05-04T07:04:46.605Z,15.16
2017-05-04T07:05:27.785Z,15.21
2017-05-04T07:06:07.633Z,15.27
2017-05-04T07:06:48.187Z,15.06
2017-05-04T07:08:26.046Z,15.01
2017-05-04T07:09:06.611Z,14.99
2017-05-04T07:09:47.138Z,15.11
2017-05-04T07:10:27.634Z,14.94
2017-05-04T07:11:08.163Z,14.88
2017-05-04T07:11:49.280Z,14.84
2017-05-04T07:12:29.267Z,15.03
2017-05-04T07:13:09.746Z,14.95
2017-05-04T07:13:50.276Z,14.84
2017-05-04T07:14:30.802Z,14.86
2017-05-04T07:15:11.356Z,14.91
2017-05-04T07:15:51.853Z,15.06
2017-05-04T07:16:32.372Z,15.03
2017-05-04T07:17:12.912Z,15.09
2017-05-04T07:17:53.428Z,14.99
2017-05-04T07:18:33.998Z,14.95
2017-05-04T07:19:15.023Z,15.1
2017-05-04T07:19:55.110Z,15.23
2017-05-04T07:20:35.627Z,15.07
2017-05-04T07:21:16.195Z,15.02
2017-05-04T07:21:57.095Z,15.27
2017-05-04T07:22:37.680Z,15.21
2017-05-04T07:23:18.590Z,15.39
2017-05-04T07:23:59.273Z,15.23
2017-05-04T07:24:39.823Z,15.34
2017-05-04T07:26:17.739Z,15.36
2017-05-04T07:26:58.249Z,15.41
2017-05-04T07:27:38.785Z,15.41
2017-05-04T07:28:19.306Z,15.5
2017-05-04T07:28:59.826Z,15.39
2017-05-04T07:29:40.344Z,15.51
2017-05-04T07:30:20.882Z,15.5
2017-05-04T07:31:01.405Z,15.64
2017-05-04T07:31:41.939Z,15.5
2017-05-04T07:32:22.465Z,15.5
2017-05-04T07:33:02.980Z,15.35
2017-05-04T07:33:43.513Z,15.49
2017-05-04T07:34:24.033Z,15.41
2017-05-04T07:35:04.576Z,15.35
2017-05-04T07:35:45.051Z,15.64
2017-05-04T07:36:25.573Z,15.59
2017-05-04T07:37:06.256Z,15.51
2017-05-04T07:37:46.690Z,15.57
2017-05-04T07:38:27.281Z,15.6
2017-05-04T07:39:07.806Z,15.76
2017-05-04T07:39:48.308Z,15.86
2017-05-04T07:40:28.830Z,15.89
2017-05-04T07:41:09.351Z,15.78
2017-05-04T07:42:57.355Z,15.8
2017-05-04T07:43:37.868Z,15.83
2017-05-04T07:44:18.393Z,15.89
2017-05-04T07:44:58.903Z,15.87
2017-05-04T07:45:39.424Z,15.8
2017-05-04T07:46:19.954Z,15.8
2017-05-04T07:47:00.472Z,15.65
2017-05-04T07:47:40.989Z,15.72
2017-05-04T07:48:21.496Z,15.68
2017-05-04T07:49:02.021Z,15.62
2017-05-04T07:49:42.543Z,15.6
2017-05-04T07:50:23.071Z,15.62
2017-05-04T07:51:03.598Z,15.75
2017-05-04T07:51:44.148Z,15.75
2017-05-04T07:52:24.670Z,15.64
2017-05-04T07:53:05.218Z,15.71
2017-05-04T07:53:45.738Z,15.69
2017-05-04T07:54:26.260Z,15.74
2017-05-04T07:55:06.775Z,15.82
2017-05-04T07:55:47.327Z,15.84
2017-05-04T07:56:27.848Z,15.53
2017-05-04T07:57:08.376Z,15.38
2017-05-04T07:57:48.902Z,15.5
2017-05-04T07:58:29.407Z,15.47
2017-05-04T07:59:09.929Z,15.57
2017-05-04T07:59:50.468Z,15.67
2017-05-04T08:00:31.000Z,15.74
2017-05-04T08:01:11.521Z,15.64
2017-05-04T08:01:52.044Z,15.64
2017-05-04T08:02:32.555Z,15.69
2017-05-04T08:03:13.059Z,15.68
2017-05-04T08:03:53.602Z,15.74
2017-05-04T08:04:34.132Z,15.67
2017-05-04T08:05:14.655Z,15.65
2017-05-04T08:05:55.207Z,15.68
2017-05-04T08:06:35.732Z,15.68
2017-05-04T08:07:16.268Z,15.68
2017-05-04T08:07:56.792Z,15.65
2017-05-04T08:08:37.314Z,15.57
2017-05-04T08:09:17.962Z,15.41
2017-05-04T08:09:58.491Z,15.32
2017-05-04T08:10:39.003Z,15.28
2017-05-04T08:11:19.526Z,15.31
2017-05-04T08:12:00.062Z,15.29
2017-05-04T08:12:40.586Z,15.29
2017-05-04T08:13:21.099Z,15.23
2017-05-04T08:14:01.615Z,15.38
2017-05-04T08:14:42.128Z,15.47
2017-05-04T08:16:40.442Z,15.57
2017-05-04T08:17:20.951Z,15.56
2017-05-04T08:18:01.475Z,15.69
2017-05-04T08:18:42.014Z,15.75
2017-05-04T08:19:22.532Z,15.92
2017-05-04T08:20:03.045Z,15.9
2017-05-04T08:20:43.562Z,15.96
2017-05-04T08:21:24.085Z,16.07
2017-05-04T08:22:04.605Z,16.07
2017-05-04T08:22:45.130Z,16.07
2017-05-04T08:23:25.653Z,16.09
2017-05-04T08:24:06.176Z,16.23
2017-05-04T08:24:46.700Z,16.09
2017-05-04T08:25:27.229Z,16.11
2017-05-04T08:26:07.747Z,16.17
2017-05-04T08:26:48.265Z,16.15
2017-05-04T08:27:28.820Z,16.09
2017-05-04T08:28:09.348Z,15.93
2017-05-04T08:28:49.854Z,15.96
2017-05-04T08:29:30.383Z,15.87
2017-05-04T08:30:10.899Z,15.8
2017-05-04T08:30:51.414Z,15.87
2017-05-04T08:31:31.941Z,15.86
2017-05-04T08:32:12.454Z,15.8
2017-05-04T08:32:52.968Z,15.74
2017-05-04T08:33:33.499Z,15.76
2017-05-04T08:34:14.028Z,15.82
2017-05-04T08:34:54.553Z,15.78
2017-05-04T08:35:35.075Z,15.76
2017-05-04T08:36:15.598Z,15.72
2017-05-04T08:36:56.115Z,15.83
2017-05-04T08:37:36.644Z,15.78
2017-05-04T08:38:17.174Z,15.92
2017-05-04T08:38:57.710Z,15.97
2017-05-04T08:39:38.214Z,16.09
2017-05-04T08:40:18.742Z,16.11
2017-05-04T08:40:59.258Z,16.25
2017-05-04T08:41:39.797Z,16.25
2017-05-04T08:42:20.329Z,16.24
2017-05-04T08:43:00.877Z,16.39
2017-05-04T08:43:41.395Z,16.45
2017-05-04T08:44:21.915Z,16.52
2017-05-04T08:45:02.436Z,16.52
2017-05-04T08:45:42.951Z,16.53
2017-05-04T08:46:23.478Z,16.58
2017-05-04T08:47:03.995Z,16.63
2017-05-04T08:47:44.519Z,16.57
2017-05-04T08:48:25.048Z,16.46
2017-05-04T08:49:05.562Z,16.48